sensor_id;sensor_type;location;lat;lon;timestamp;pressure;altitude;pressure_sealevel;temperature;humidity
54248;BME280;40161;39.768;2.722;2022-08-21T00:01:35;101287.84;;;24.29;58.74
54248;BME280;40161;39.768;2.722;2022-08-21T00:07:22;101320.78;;;24.54;60.62
54248;BME280;40161;39.768;2.722;2022-08-21T00:13:10;101311.38;;;24.61;59.64
54248;BME280;40161;39.768;2.722;2022-08-21T00:15:36;101280.72;;;24.41;58.20
54248;BME280;40161;39.768;2.722;2022-08-21T00:18:04;101305.72;;;24.74;59.37
54248;BME280;40161;39.768;2.722;2022-08-21T00:20:30;101313.84;;;24.72;59.32
54248;BME280;40161;39.768;2.722;2022-08-21T00:22:56;101300.47;;;24.63;58.74
54248;BME280;40161;39.768;2.722;2022-08-21T00:25:22;101299.25;;;24.64;59.49
54248;BME280;40161;39.768;2.722;2022-08-21T00:27:47;101320.47;;;24.78;59.78
54248;BME280;40161;39.768;2.722;2022-08-21T00:30:15;101309.91;;;24.82;59.30
54248;BME280;40161;39.768;2.722;2022-08-21T00:32:42;101307.41;;;24.84;59.45
54248;BME280;40161;39.768;2.722;2022-08-21T00:35:12;101282.28;;;24.68;58.89
54248;BME280;40161;39.768;2.722;2022-08-21T00:37:39;101306.41;;;24.78;57.68
54248;BME280;40161;39.768;2.722;2022-08-21T00:40:07;101302.38;;;24.79;58.62
54248;BME280;40161;39.768;2.722;2022-08-21T00:42:33;101305.88;;;24.57;59.85
54248;BME280;40161;39.768;2.722;2022-08-21T00:44:58;101288.34;;;24.53;59.10
54248;BME280;40161;39.768;2.722;2022-08-21T00:47:24;101277.31;;;24.21;57.94
54248;BME280;40161;39.768;2.722;2022-08-21T00:49:49;101258.69;;;24.14;60.35
54248;BME280;40161;39.768;2.722;2022-08-21T00:52:27;101291.94;;;24.41;59.84
54248;BME280;40161;39.768;2.722;2022-08-21T00:54:55;101299.13;;;24.55;59.71
54248;BME280;40161;39.768;2.722;2022-08-21T00:57:27;101301.03;;;24.58;59.63
54248;BME280;40161;39.768;2.722;2022-08-21T00:59:56;101285.88;;;24.55;58.38
54248;BME280;40161;39.768;2.722;2022-08-21T01:02:23;101268.16;;;24.33;57.38
54248;BME280;40161;39.768;2.722;2022-08-21T01:04:49;101284.13;;;23.94;58.96
54248;BME280;40161;39.768;2.722;2022-08-21T01:07:15;101276.19;;;24.18;60.17
54248;BME280;40161;39.768;2.722;2022-08-21T01:09:42;101254.66;;;24.02;60.09
54248;BME280;40161;39.768;2.722;2022-08-21T01:12:08;101277.53;;;24.39;59.78
54248;BME280;40161;39.768;2.722;2022-08-21T01:14:34;101278.44;;;24.10;58.36
54248;BME280;40161;39.768;2.722;2022-08-21T01:17:01;101285.75;;;23.50;61.09
54248;BME280;40161;39.768;2.722;2022-08-21T01:19:28;101279.84;;;23.89;61.26
54248;BME280;40161;39.768;2.722;2022-08-21T01:21:54;101275.41;;;24.17;60.35
54248;BME280;40161;39.768;2.722;2022-08-21T01:24:20;101283.16;;;24.13;60.31
54248;BME280;40161;39.768;2.722;2022-08-21T01:26:48;101285.88;;;24.30;59.97
54248;BME280;40161;39.768;2.722;2022-08-21T01:31:52;101277.63;;;23.97;60.74
54248;BME280;40161;39.768;2.722;2022-08-21T01:34:18;101272.56;;;23.63;60.11
54248;BME280;40161;39.768;2.722;2022-08-21T01:36:44;101273.44;;;23.60;61.69
54248;BME280;40161;39.768;2.722;2022-08-21T01:39:10;101256.06;;;23.52;59.51
54248;BME280;40161;39.768;2.722;2022-08-21T01:41:36;101246.66;;;23.75;61.32
54248;BME280;40161;39.768;2.722;2022-08-21T01:44:02;101277.41;;;24.04;60.92
54248;BME280;40161;39.768;2.722;2022-08-21T01:46:27;101229.94;;;23.84;60.89
54248;BME280;40161;39.768;2.722;2022-08-21T01:48:53;101270.47;;;24.09;59.68
54248;BME280;40161;39.768;2.722;2022-08-21T01:51:18;101255.63;;;23.25;61.69
54248;BME280;40161;39.768;2.722;2022-08-21T01:53:44;101248.56;;;23.78;59.19
54248;BME280;40161;39.768;2.722;2022-08-21T01:56:12;101265.56;;;23.42;62.42
54248;BME280;40161;39.768;2.722;2022-08-21T01:58:43;101270.66;;;23.60;61.62
54248;BME280;40161;39.768;2.722;2022-08-21T02:01:09;101262.22;;;23.02;61.59
54248;BME280;40161;39.768;2.722;2022-08-21T02:03:35;101255.66;;;22.75;62.09
54248;BME280;40161;39.768;2.722;2022-08-21T02:06:01;101259.59;;;22.78;64.05
54248;BME280;40161;39.768;2.722;2022-08-21T02:08:28;101276.47;;;23.24;62.71
54248;BME280;40161;39.768;2.722;2022-08-21T02:10:53;101249.38;;;22.71;62.51
54248;BME280;40161;39.768;2.722;2022-08-21T02:13:19;101285.41;;;23.02;62.97
54248;BME280;40161;39.768;2.722;2022-08-21T02:15:44;101253.81;;;22.85;62.86
54248;BME280;40161;39.768;2.722;2022-08-21T02:18:11;101281.47;;;23.45;62.79
54248;BME280;40161;39.768;2.722;2022-08-21T02:20:41;101277.28;;;23.66;62.10
54248;BME280;40161;39.768;2.722;2022-08-21T02:23:09;101275.25;;;23.83;61.26
54248;BME280;40161;39.768;2.722;2022-08-21T02:25:36;101274.25;;;23.89;61.08
54248;BME280;40161;39.768;2.722;2022-08-21T02:28:07;101274.91;;;23.93;60.47
54248;BME280;40161;39.768;2.722;2022-08-21T02:30:36;101259.78;;;23.91;60.89
54248;BME280;40161;39.768;2.722;2022-08-21T02:33:06;101265.06;;;23.89;60.79
54248;BME280;40161;39.768;2.722;2022-08-21T02:35:31;101250.91;;;23.80;61.18
54248;BME280;40161;39.768;2.722;2022-08-21T02:38:00;101255.41;;;23.90;60.60
54248;BME280;40161;39.768;2.722;2022-08-21T02:40:29;101273.13;;;23.87;58.44
54248;BME280;40161;39.768;2.722;2022-08-21T02:42:57;101270.56;;;23.92;58.88
54248;BME280;40161;39.768;2.722;2022-08-21T02:45:22;101283.19;;;23.55;58.38
54248;BME280;40161;39.768;2.722;2022-08-21T02:48:00;101244.69;;;23.30;58.82
54248;BME280;40161;39.768;2.722;2022-08-21T02:50:30;101264.31;;;23.14;60.16
54248;BME280;40161;39.768;2.722;2022-08-21T02:52:56;101271.13;;;22.64;62.12
54248;BME280;40161;39.768;2.722;2022-08-21T02:55:24;101279.47;;;22.11;64.02
54248;BME280;40161;39.768;2.722;2022-08-21T02:57:52;101283.06;;;22.12;66.37
54248;BME280;40161;39.768;2.722;2022-08-21T03:00:18;101288.88;;;22.90;64.25
54248;BME280;40161;39.768;2.722;2022-08-21T03:02:46;101293.84;;;23.31;62.71
54248;BME280;40161;39.768;2.722;2022-08-21T03:05:12;101296.25;;;23.45;62.01
54248;BME280;40161;39.768;2.722;2022-08-21T03:07:38;101286.53;;;23.50;61.45
54248;BME280;40161;39.768;2.722;2022-08-21T03:10:05;101292.47;;;23.68;60.69
54248;BME280;40161;39.768;2.722;2022-08-21T03:12:31;101295.97;;;23.56;59.10
54248;BME280;40161;39.768;2.722;2022-08-21T03:14:57;101282.41;;;23.55;59.26
54248;BME280;40161;39.768;2.722;2022-08-21T03:17:24;101287.94;;;23.42;58.37
54248;BME280;40161;39.768;2.722;2022-08-21T03:19:49;101292.72;;;23.12;60.98
54248;BME280;40161;39.768;2.722;2022-08-21T03:22:15;101290.00;;;23.09;60.34
54248;BME280;40161;39.768;2.722;2022-08-21T03:24:41;101301.66;;;23.24;60.83
54248;BME280;40161;39.768;2.722;2022-08-21T03:27:06;101294.53;;;23.35;61.26
54248;BME280;40161;39.768;2.722;2022-08-21T03:29:32;101279.06;;;23.31;61.00
54248;BME280;40161;39.768;2.722;2022-08-21T03:31:57;101290.91;;;23.51;60.80
54248;BME280;40161;39.768;2.722;2022-08-21T03:34:23;101272.34;;;23.57;61.00
54248;BME280;40161;39.768;2.722;2022-08-21T03:36:49;101289.56;;;23.72;60.00
54248;BME280;40161;39.768;2.722;2022-08-21T03:39:16;101254.53;;;23.35;58.72
54248;BME280;40161;39.768;2.722;2022-08-21T03:41:41;101269.78;;;23.34;58.29
54248;BME280;40161;39.768;2.722;2022-08-21T03:44:07;101269.19;;;22.77;61.25
54248;BME280;40161;39.768;2.722;2022-08-21T03:46:33;101289.75;;;23.19;61.68
54248;BME280;40161;39.768;2.722;2022-08-21T03:48:59;101267.78;;;23.18;61.23
54248;BME280;40161;39.768;2.722;2022-08-21T03:51:25;101265.25;;;23.24;61.11
54248;BME280;40161;39.768;2.722;2022-08-21T03:53:51;101269.88;;;23.30;60.12
54248;BME280;40161;39.768;2.722;2022-08-21T03:56:17;101217.25;;;22.43;59.42
54248;BME280;40161;39.768;2.722;2022-08-21T03:58:42;101260.00;;;22.60;59.95
54248;BME280;40161;39.768;2.722;2022-08-21T04:01:10;101261.75;;;22.70;61.82
54248;BME280;40161;39.768;2.722;2022-08-21T04:03:36;101250.94;;;22.89;60.10
54248;BME280;40161;39.768;2.722;2022-08-21T04:06:03;101246.38;;;23.11;59.97
54248;BME280;40161;39.768;2.722;2022-08-21T04:08:28;101269.53;;;23.28;59.01
54248;BME280;40161;39.768;2.722;2022-08-21T04:10:56;101248.56;;;23.04;59.13
54248;BME280;40161;39.768;2.722;2022-08-21T04:13:23;101253.72;;;22.89;59.88
54248;BME280;40161;39.768;2.722;2022-08-21T04:15:49;101270.16;;;23.19;60.43
54248;BME280;40161;39.768;2.722;2022-08-21T04:18:16;101275.81;;;23.32;59.50
54248;BME280;40161;39.768;2.722;2022-08-21T04:20:43;101265.84;;;23.31;57.66
54248;BME280;40161;39.768;2.722;2022-08-21T04:23:09;101258.34;;;22.63;60.68
54248;BME280;40161;39.768;2.722;2022-08-21T04:25:34;101257.22;;;22.77;60.29
54248;BME280;40161;39.768;2.722;2022-08-21T04:28:01;101272.16;;;22.37;61.74
54248;BME280;40161;39.768;2.722;2022-08-21T04:30:27;101273.47;;;22.49;63.00
54248;BME280;40161;39.768;2.722;2022-08-21T04:32:53;101276.91;;;22.73;62.55
54248;BME280;40161;39.768;2.722;2022-08-21T04:35:21;101274.53;;;23.04;62.04
54248;BME280;40161;39.768;2.722;2022-08-21T04:37:47;101267.88;;;23.14;61.37
54248;BME280;40161;39.768;2.722;2022-08-21T04:40:15;101268.94;;;23.20;60.46
54248;BME280;40161;39.768;2.722;2022-08-21T04:42:57;101287.09;;;23.29;60.22
54248;BME280;40161;39.768;2.722;2022-08-21T04:45:38;101259.97;;;22.96;59.12
54248;BME280;40161;39.768;2.722;2022-08-21T04:48:06;101268.06;;;23.24;60.77
54248;BME280;40161;39.768;2.722;2022-08-21T04:50:43;101270.28;;;23.00;59.61
54248;BME280;40161;39.768;2.722;2022-08-21T04:53:15;101272.78;;;23.10;59.54
54248;BME280;40161;39.768;2.722;2022-08-21T04:55:42;101266.97;;;22.36;63.41
54248;BME280;40161;39.768;2.722;2022-08-21T04:58:10;101249.97;;;22.79;62.48
54248;BME280;40161;39.768;2.722;2022-08-21T05:00:37;101257.16;;;22.96;61.61
54248;BME280;40161;39.768;2.722;2022-08-21T05:03:05;101259.84;;;23.16;61.44
54248;BME280;40161;39.768;2.722;2022-08-21T05:05:31;101256.25;;;23.16;60.98
54248;BME280;40161;39.768;2.722;2022-08-21T05:07:59;101266.09;;;23.37;60.31
54248;BME280;40161;39.768;2.722;2022-08-21T05:10:26;101254.19;;;23.33;60.98
54248;BME280;40161;39.768;2.722;2022-08-21T05:12:53;101264.97;;;23.34;58.94
54248;BME280;40161;39.768;2.722;2022-08-21T05:15:19;101263.53;;;23.42;60.43
54248;BME280;40161;39.768;2.722;2022-08-21T05:17:45;101260.94;;;23.35;59.66
54248;BME280;40161;39.768;2.722;2022-08-21T05:20:12;101264.47;;;23.23;58.80
54248;BME280;40161;39.768;2.722;2022-08-21T05:22:38;101252.31;;;22.81;62.16
54248;BME280;40161;39.768;2.722;2022-08-21T05:25:05;101256.44;;;23.09;61.16
54248;BME280;40161;39.768;2.722;2022-08-21T05:27:30;101256.84;;;23.24;60.65
54248;BME280;40161;39.768;2.722;2022-08-21T05:29:57;101226.28;;;23.00;60.65
54248;BME280;40161;39.768;2.722;2022-08-21T05:32:23;101261.59;;;23.39;61.06
54248;BME280;40161;39.768;2.722;2022-08-21T05:34:50;101248.22;;;22.85;60.50
54248;BME280;40161;39.768;2.722;2022-08-21T05:37:16;101265.53;;;22.64;61.83
54248;BME280;40161;39.768;2.722;2022-08-21T05:39:42;101251.72;;;21.84;63.89
54248;BME280;40161;39.768;2.722;2022-08-21T05:42:07;101248.50;;;21.86;63.32
54248;BME280;40161;39.768;2.722;2022-08-21T05:44:33;101258.75;;;22.28;62.32
54248;BME280;40161;39.768;2.722;2022-08-21T05:47:10;101261.00;;;21.97;65.99
54248;BME280;40161;39.768;2.722;2022-08-21T05:49:36;101254.72;;;22.30;63.64
54248;BME280;40161;39.768;2.722;2022-08-21T05:52:03;101241.66;;;22.59;63.64
54248;BME280;40161;39.768;2.722;2022-08-21T05:54:29;101131.91;;;22.22;62.06
54248;BME280;40161;39.768;2.722;2022-08-21T05:56:55;101237.47;;;23.00;62.05
54248;BME280;40161;39.768;2.722;2022-08-21T05:59:20;101245.13;;;23.12;61.74
54248;BME280;40161;39.768;2.722;2022-08-21T06:01:46;101239.78;;;23.18;61.74
54248;BME280;40161;39.768;2.722;2022-08-21T06:04:12;101236.13;;;23.21;61.52
54248;BME280;40161;39.768;2.722;2022-08-21T06:06:38;101249.81;;;23.32;61.80
54248;BME280;40161;39.768;2.722;2022-08-21T06:09:04;101256.69;;;23.14;60.84
54248;BME280;40161;39.768;2.722;2022-08-21T06:11:30;101255.66;;;22.75;61.97
54248;BME280;40161;39.768;2.722;2022-08-21T06:13:56;101254.63;;;21.97;65.07
54248;BME280;40161;39.768;2.722;2022-08-21T06:16:22;101258.75;;;22.09;64.77
54248;BME280;40161;39.768;2.722;2022-08-21T06:18:48;101259.91;;;21.75;66.36
54248;BME280;40161;39.768;2.722;2022-08-21T06:21:14;101262.69;;;21.75;66.47
54248;BME280;40161;39.768;2.722;2022-08-21T06:23:40;101255.75;;;22.19;63.38
54248;BME280;40161;39.768;2.722;2022-08-21T06:26:07;101262.44;;;22.42;63.93
54248;BME280;40161;39.768;2.722;2022-08-21T06:28:34;101249.66;;;22.24;64.80
54248;BME280;40161;39.768;2.722;2022-08-21T06:30:59;101252.50;;;22.41;62.46
54248;BME280;40161;39.768;2.722;2022-08-21T06:33:25;101262.31;;;21.93;65.62
54248;BME280;40161;39.768;2.722;2022-08-21T06:35:51;101244.72;;;21.76;66.94
54248;BME280;40161;39.768;2.722;2022-08-21T06:38:17;101252.50;;;22.41;65.43
54248;BME280;40161;39.768;2.722;2022-08-21T06:40:42;101240.09;;;22.58;64.39
54248;BME280;40161;39.768;2.722;2022-08-21T06:43:13;101263.25;;;23.08;62.89
54248;BME280;40161;39.768;2.722;2022-08-21T06:45:39;101250.13;;;23.21;62.10
54248;BME280;40161;39.768;2.722;2022-08-21T06:48:05;101250.59;;;23.32;62.32
54248;BME280;40161;39.768;2.722;2022-08-21T06:50:32;101240.69;;;22.98;62.63
54248;BME280;40161;39.768;2.722;2022-08-21T06:53:09;101244.31;;;23.28;62.43
54248;BME280;40161;39.768;2.722;2022-08-21T06:55:36;101227.47;;;23.15;63.60
54248;BME280;40161;39.768;2.722;2022-08-21T06:58:03;101216.69;;;23.30;62.41
54248;BME280;40161;39.768;2.722;2022-08-21T07:00:29;101228.25;;;23.45;60.51
54248;BME280;40161;39.768;2.722;2022-08-21T07:02:55;101233.41;;;23.46;59.37
54248;BME280;40161;39.768;2.722;2022-08-21T07:05:22;101230.66;;;23.59;59.92
54248;BME280;40161;39.768;2.722;2022-08-21T07:07:49;101222.75;;;23.71;59.77
54248;BME280;40161;39.768;2.722;2022-08-21T07:10:15;101216.22;;;23.61;56.32
54248;BME280;40161;39.768;2.722;2022-08-21T07:12:41;101227.91;;;23.43;60.20
54248;BME280;40161;39.768;2.722;2022-08-21T07:15:07;101134.72;;;23.01;59.24
54248;BME280;40161;39.768;2.722;2022-08-21T07:17:33;101231.69;;;23.36;60.82
54248;BME280;40161;39.768;2.722;2022-08-21T07:19:59;101227.19;;;23.55;59.21
54248;BME280;40161;39.768;2.722;2022-08-21T07:22:24;101233.53;;;23.72;59.05
54248;BME280;40161;39.768;2.722;2022-08-21T07:24:53;101229.09;;;23.58;59.62
54248;BME280;40161;39.768;2.722;2022-08-21T07:27:18;101223.78;;;23.48;59.20
54248;BME280;40161;39.768;2.722;2022-08-21T07:29:44;101208.31;;;23.72;57.61
54248;BME280;40161;39.768;2.722;2022-08-21T07:32:10;101243.41;;;23.89;57.83
54248;BME280;40161;39.768;2.722;2022-08-21T07:37:57;101232.22;;;24.28;59.65
54248;BME280;40161;39.768;2.722;2022-08-21T07:40:22;101244.00;;;24.35;58.91
54248;BME280;40161;39.768;2.722;2022-08-21T07:42:48;101220.56;;;24.29;56.09
54248;BME280;40161;39.768;2.722;2022-08-21T07:45:20;101231.91;;;24.51;55.45
54248;BME280;40161;39.768;2.722;2022-08-21T07:47:47;101228.50;;;24.82;54.69
54248;BME280;40161;39.768;2.722;2022-08-21T07:50:13;101221.88;;;25.10;53.70
54248;BME280;40161;39.768;2.722;2022-08-21T07:52:40;101220.03;;;24.95;52.07
54248;BME280;40161;39.768;2.722;2022-08-21T07:55:07;101226.69;;;24.88;54.23
54248;BME280;40161;39.768;2.722;2022-08-21T07:57:34;101216.69;;;24.87;52.25
54248;BME280;40161;39.768;2.722;2022-08-21T07:59:59;101218.69;;;24.99;51.14
54248;BME280;40161;39.768;2.722;2022-08-21T08:02:27;101207.31;;;25.03;49.09
54248;BME280;40161;39.768;2.722;2022-08-21T08:08:15;101211.56;;;25.20;50.32
54248;BME280;40161;39.768;2.722;2022-08-21T08:10:41;101213.31;;;25.27;47.03
54248;BME280;40161;39.768;2.722;2022-08-21T08:13:06;101199.53;;;25.42;48.05
54248;BME280;40161;39.768;2.722;2022-08-21T08:15:32;101217.63;;;25.41;49.16
54248;BME280;40161;39.768;2.722;2022-08-21T08:17:58;101210.00;;;25.41;45.44
54248;BME280;40161;39.768;2.722;2022-08-21T08:20:24;101179.41;;;25.21;49.07
54248;BME280;40161;39.768;2.722;2022-08-21T08:22:53;101206.84;;;25.39;46.24
54248;BME280;40161;39.768;2.722;2022-08-21T08:25:20;101208.47;;;25.49;47.30
54248;BME280;40161;39.768;2.722;2022-08-21T08:27:45;101208.41;;;25.62;49.19
54248;BME280;40161;39.768;2.722;2022-08-21T08:30:13;101205.41;;;25.56;46.81
54248;BME280;40161;39.768;2.722;2022-08-21T08:32:39;101204.34;;;25.63;44.95
54248;BME280;40161;39.768;2.722;2022-08-21T08:35:06;101198.28;;;25.65;45.09
54248;BME280;40161;39.768;2.722;2022-08-21T08:43:30;101167.00;;;26.25;39.89
54248;BME280;40161;39.768;2.722;2022-08-21T08:49:24;101165.06;;;26.53;42.03
54248;BME280;40161;39.768;2.722;2022-08-21T08:52:00;101182.13;;;26.77;42.62
54248;BME280;40161;39.768;2.722;2022-08-21T08:54:39;101184.34;;;26.82;43.17
54248;BME280;40161;39.768;2.722;2022-08-21T08:57:14;101180.91;;;26.87;43.87
54248;BME280;40161;39.768;2.722;2022-08-21T08:59:43;101169.63;;;26.69;43.04
54248;BME280;40161;39.768;2.722;2022-08-21T09:02:11;101153.22;;;26.86;45.82
54248;BME280;40161;39.768;2.722;2022-08-21T09:04:37;101180.31;;;27.02;46.92
54248;BME280;40161;39.768;2.722;2022-08-21T09:12:33;101151.16;;;27.32;45.99
54248;BME280;40161;39.768;2.722;2022-08-21T09:15:09;101184.47;;;27.52;46.07
54248;BME280;40161;39.768;2.722;2022-08-21T09:26:14;101177.72;;;27.77;44.85
54248;BME280;40161;39.768;2.722;2022-08-21T09:28:42;101161.34;;;27.90;43.85
54248;BME280;40161;39.768;2.722;2022-08-21T09:31:32;101143.53;;;27.75;43.66
54248;BME280;40161;39.768;2.722;2022-08-21T09:34:00;101168.81;;;27.60;46.17
54248;BME280;40161;39.768;2.722;2022-08-21T09:36:51;101166.88;;;27.85;46.09
54248;BME280;40161;39.768;2.722;2022-08-21T09:39:31;101170.56;;;28.00;45.31
54248;BME280;40161;39.768;2.722;2022-08-21T09:42:06;101097.78;;;27.80;44.65
54248;BME280;40161;39.768;2.722;2022-08-21T09:44:40;101152.94;;;28.14;45.89
54248;BME280;40161;39.768;2.722;2022-08-21T09:47:10;101153.44;;;28.13;44.26
54248;BME280;40161;39.768;2.722;2022-08-21T09:49:41;101149.06;;;28.12;44.76
54248;BME280;40161;39.768;2.722;2022-08-21T09:52:19;101150.84;;;28.24;44.97
54248;BME280;40161;39.768;2.722;2022-08-21T09:54:51;101159.13;;;28.28;44.81
54248;BME280;40161;39.768;2.722;2022-08-21T09:57:24;101158.00;;;28.34;45.92
54248;BME280;40161;39.768;2.722;2022-08-21T10:00:30;101149.31;;;28.23;47.00
54248;BME280;40161;39.768;2.722;2022-08-21T10:03:17;101158.19;;;28.31;45.14
54248;BME280;40161;39.768;2.722;2022-08-21T10:06:06;101168.50;;;28.43;44.41
54248;BME280;40161;39.768;2.722;2022-08-21T10:08:36;101172.50;;;28.51;44.70
54248;BME280;40161;39.768;2.722;2022-08-21T10:11:06;101157.50;;;28.45;45.58
54248;BME280;40161;39.768;2.722;2022-08-21T10:13:37;101169.28;;;28.44;45.00
54248;BME280;40161;39.768;2.722;2022-08-21T10:27:18;101163.28;;;28.51;43.61
54248;BME280;40161;39.768;2.722;2022-08-21T10:29:59;101141.38;;;28.36;44.82
54248;BME280;40161;39.768;2.722;2022-08-21T10:35:30;101171.91;;;28.47;44.25
54248;BME280;40161;39.768;2.722;2022-08-21T10:45:31;101166.44;;;28.68;44.63
54248;BME280;40161;39.768;2.722;2022-08-21T10:48:07;101163.50;;;28.62;43.84
54248;BME280;40161;39.768;2.722;2022-08-21T10:50:48;101167.41;;;28.65;43.79
54248;BME280;40161;39.768;2.722;2022-08-21T10:53:22;101143.84;;;28.68;43.99
54248;BME280;40161;39.768;2.722;2022-08-21T10:55:56;101142.06;;;28.55;44.13
54248;BME280;40161;39.768;2.722;2022-08-21T10:58:38;101160.75;;;28.77;42.17
54248;BME280;40161;39.768;2.722;2022-08-21T11:01:27;101166.53;;;28.73;43.06
54248;BME280;40161;39.768;2.722;2022-08-21T11:04:09;101162.47;;;28.74;42.22
54248;BME280;40161;39.768;2.722;2022-08-21T11:06:37;101150.78;;;28.67;42.62
54248;BME280;40161;39.768;2.722;2022-08-21T11:09:18;101113.34;;;28.57;43.81
54248;BME280;40161;39.768;2.722;2022-08-21T11:11:58;101141.84;;;28.83;44.18
54248;BME280;40161;39.768;2.722;2022-08-21T11:14:51;101140.66;;;28.75;44.20
54248;BME280;40161;39.768;2.722;2022-08-21T11:17:24;101129.72;;;28.53;45.88
54248;BME280;40161;39.768;2.722;2022-08-21T11:25:12;101134.97;;;28.60;46.85
54248;BME280;40161;39.768;2.722;2022-08-21T11:27:44;101140.81;;;28.56;48.77
54248;BME280;40161;39.768;2.722;2022-08-21T11:30:11;101153.06;;;28.53;47.94
54248;BME280;40161;39.768;2.722;2022-08-21T11:33:05;101150.63;;;28.85;48.37
54248;BME280;40161;39.768;2.722;2022-08-21T11:35:45;101153.63;;;28.81;47.31
54248;BME280;40161;39.768;2.722;2022-08-21T11:38:35;101144.66;;;28.83;48.56
54248;BME280;40161;39.768;2.722;2022-08-21T11:43:42;101134.66;;;28.97;48.66
54248;BME280;40161;39.768;2.722;2022-08-21T11:51:55;101130.13;;;28.99;49.67
54248;BME280;40161;39.768;2.722;2022-08-21T11:54:26;101126.31;;;29.02;51.05
54248;BME280;40161;39.768;2.722;2022-08-21T11:57:06;101116.69;;;29.09;51.13
54248;BME280;40161;39.768;2.722;2022-08-21T11:59:37;101113.88;;;29.09;50.04
54248;BME280;40161;39.768;2.722;2022-08-21T12:02:11;101096.00;;;28.88;50.97
54248;BME280;40161;39.768;2.722;2022-08-21T12:04:51;101103.75;;;28.63;51.66
54248;BME280;40161;39.768;2.722;2022-08-21T12:09:57;101093.63;;;28.86;50.84
54248;BME280;40161;39.768;2.722;2022-08-21T12:12:29;101079.13;;;28.94;50.69
54248;BME280;40161;39.768;2.722;2022-08-21T12:20:32;101069.34;;;29.04;50.49
54248;BME280;40161;39.768;2.722;2022-08-21T12:25:41;101042.34;;;29.18;50.59
54248;BME280;40161;39.768;2.722;2022-08-21T12:28:10;101070.38;;;29.51;50.70
54248;BME280;40161;39.768;2.722;2022-08-21T12:30:39;101061.50;;;29.58;50.65
54248;BME280;40161;39.768;2.722;2022-08-21T12:33:19;101071.34;;;29.63;50.20
54248;BME280;40161;39.768;2.722;2022-08-21T12:35:47;101055.84;;;29.58;51.59
54248;BME280;40161;39.768;2.722;2022-08-21T12:40:52;101069.84;;;29.82;51.00
54248;BME280;40161;39.768;2.722;2022-08-21T12:45:58;101053.91;;;29.64;51.45
54248;BME280;40161;39.768;2.722;2022-08-21T12:48:47;101058.22;;;29.60;52.14
54248;BME280;40161;39.768;2.722;2022-08-21T12:51:22;101043.16;;;29.18;53.09
54248;BME280;40161;39.768;2.722;2022-08-21T12:53:55;101008.06;;;29.10;53.32
54248;BME280;40161;39.768;2.722;2022-08-21T12:56:23;101051.47;;;29.57;52.14
54248;BME280;40161;39.768;2.722;2022-08-21T12:58:54;101050.97;;;29.73;51.75
54248;BME280;40161;39.768;2.722;2022-08-21T13:01:29;101055.41;;;29.80;51.04
54248;BME280;40161;39.768;2.722;2022-08-21T13:03:58;101052.31;;;29.78;51.96
54248;BME280;40161;39.768;2.722;2022-08-21T13:06:29;101056.41;;;29.77;51.29
54248;BME280;40161;39.768;2.722;2022-08-21T13:09:04;101050.88;;;29.68;52.11
54248;BME280;40161;39.768;2.722;2022-08-21T13:11:31;101050.50;;;29.60;52.45
54248;BME280;40161;39.768;2.722;2022-08-21T13:13:57;101058.66;;;29.73;52.50
54248;BME280;40161;39.768;2.722;2022-08-21T13:16:27;101045.63;;;29.61;53.05
54248;BME280;40161;39.768;2.722;2022-08-21T13:19:05;101046.34;;;29.76;52.79
54248;BME280;40161;39.768;2.722;2022-08-21T13:21:41;101028.06;;;29.56;52.52
54248;BME280;40161;39.768;2.722;2022-08-21T13:24:20;101033.59;;;29.66;52.04
54248;BME280;40161;39.768;2.722;2022-08-21T13:30:10;101035.97;;;29.67;53.60
54248;BME280;40161;39.768;2.722;2022-08-21T13:32:41;101024.47;;;29.56;53.15
54248;BME280;40161;39.768;2.722;2022-08-21T13:35:31;101013.50;;;29.78;53.75
54248;BME280;40161;39.768;2.722;2022-08-21T13:38:01;100992.34;;;29.74;53.55
54248;BME280;40161;39.768;2.722;2022-08-21T13:40:51;101014.13;;;29.88;53.31
54248;BME280;40161;39.768;2.722;2022-08-21T13:43:21;100999.44;;;29.84;53.28
54248;BME280;40161;39.768;2.722;2022-08-21T13:45:52;101007.56;;;29.97;53.86
54248;BME280;40161;39.768;2.722;2022-08-21T13:48:19;101007.53;;;29.76;53.40
54248;BME280;40161;39.768;2.722;2022-08-21T13:50:45;100995.44;;;29.76;53.48
54248;BME280;40161;39.768;2.722;2022-08-21T13:53:22;101003.69;;;29.94;54.16
54248;BME280;40161;39.768;2.722;2022-08-21T13:55:52;100994.69;;;29.96;54.22
54248;BME280;40161;39.768;2.722;2022-08-21T13:58:47;100993.91;;;29.95;54.86
54248;BME280;40161;39.768;2.722;2022-08-21T14:04:20;100991.94;;;30.01;56.21
54248;BME280;40161;39.768;2.722;2022-08-21T14:06:49;100994.81;;;29.87;55.00
54248;BME280;40161;39.768;2.722;2022-08-21T14:09:34;100986.97;;;29.76;56.80
54248;BME280;40161;39.768;2.722;2022-08-21T14:12:14;100982.69;;;29.80;57.27
54248;BME280;40161;39.768;2.722;2022-08-21T14:14:41;100979.56;;;29.78;56.72
54248;BME280;40161;39.768;2.722;2022-08-21T14:17:12;100983.44;;;29.81;57.09
54248;BME280;40161;39.768;2.722;2022-08-21T14:19:44;100971.50;;;29.92;58.09
54248;BME280;40161;39.768;2.722;2022-08-21T14:22:32;100972.91;;;30.02;57.19
54248;BME280;40161;39.768;2.722;2022-08-21T14:25:27;100971.06;;;29.99;57.80
54248;BME280;40161;39.768;2.722;2022-08-21T14:30:33;100931.69;;;29.75;57.76
54248;BME280;40161;39.768;2.722;2022-08-21T14:33:01;100951.06;;;29.82;58.20
54248;BME280;40161;39.768;2.722;2022-08-21T14:38:49;100935.72;;;29.89;57.71
54248;BME280;40161;39.768;2.722;2022-08-21T14:44:36;100935.28;;;29.96;58.17
54248;BME280;40161;39.768;2.722;2022-08-21T14:47:01;100938.31;;;30.13;57.56
54248;BME280;40161;39.768;2.722;2022-08-21T14:52:49;100935.25;;;30.16;57.60